Dell City, Texas
Current Conditions -  °F | °C
As of 9:51 PM on Thursday 27 Nov 2014 (Local Time) from KGDP Reporting Station
Clear Clear  
Wind Chill: 43°   Ceiling: Unl
Heat Index: 49°   Visibility: 10mi
Dew Point: 21°   Wind: 16mph
Humidity: 33%   Direction: 230°SW
Pressure: 30.35"   Gusts: NA
Location:  31.94°N, 105.2°W
Report Text: KGDP 280451Z AUTO 23014KT 10SM CLR 09/M06 A3035 RMK AO2 SLP240 T00941061
Loading
Personal Weather Stations






























Interactive Weather Map New forecast layout! Learn more

10-Day Weather Forecast

Advertisements
Track Severe Weather on mobile